Time;durP1;ratioP1;P1;durP2;ratioP2;P2;SDS_P1;SDS_P2;PMS_P1;PMS_P2;Temp;Humidity;BMP_temperature;BMP_pressure;BME280_temperature;BME280_humidity;BME280_pressure;Samples;Min_cycle;Max_cycle;Signal;HPM_P1;HPM_P2
2021/06/14 00:00:14;;;;;;;3.75;2.58;;;;;;;;;;5110770;27;20032;-77
2021/06/14 00:02:41;;;;;;;3.10;2.80;;;;;;;;;;5114132;27;20031;-77
2021/06/14 00:05:09;;;;;;;4.88;2.45;;;;;;;;;;5129757;27;20080;-77
2021/06/14 00:07:35;;;;;;;6.60;2.70;;;;;;;;;;5120101;27;20485;-77
2021/06/14 00:10:01;;;;;;;3.47;2.55;;;;;;;;;;5123545;27;20034;-78
2021/06/14 00:12:27;;;;;;;3.17;2.70;;;;;;;;;;5114265;27;20484;-78
2021/06/14 00:14:53;;;;;;;3.17;2.72;;;;;;;;;;5119191;27;20064;-78
2021/06/14 00:17:20;;;;;;;4.22;2.60;;;;;;;;;;5119430;27;20062;-77
2021/06/14 00:19:47;;;;;;;3.00;2.50;;;;;;;;;;5114321;27;20491;-78
2021/06/14 00:22:13;;;;;;;;;;;;;;;;;;5116400;27;20114;-78
2021/06/14 00:24:39;;;;;;;3.30;2.70;;;;;;;;;;5110720;28;20073;-77
2021/06/14 00:27:05;;;;;;;2.97;2.63;;;;;;;;;;5110855;27;20100;-77
2021/06/14 00:29:31;;;;;;;5.18;2.83;;;;;;;;;;5110035;28;20045;-78
2021/06/14 00:31:57;;;;;;;3.30;2.60;;;;;;;;;;5115342;27;20046;-78
2021/06/14 00:34:23;;;;;;;3.75;2.58;;;;;;;;;;5118885;27;20054;-78
2021/06/14 00:36:49;;;;;;;3.90;2.92;;;;;;;;;;5102811;28;20030;-78
2021/06/14 00:39:15;;;;;;;3.40;2.90;;;;;;;;;;5120157;27;20036;-78
2021/06/14 00:41:41;;;;;;;5.90;3.05;;;;;;;;;;5121409;28;20028;-79
2021/06/14 00:44:07;;;;;;;3.03;2.72;;;;;;;;;;5122524;27;20469;-78
2021/06/14 00:46:33;;;;;;;3.30;2.72;;;;;;;;;;5124521;27;20035;-78
2021/06/14 00:48:59;;;;;;;3.45;2.85;;;;;;;;;;5124258;28;20019;-78
2021/06/14 00:51:25;;;;;;;3.15;2.67;;;;;;;;;;5111978;28;20026;-78
2021/06/14 00:53:57;;;;;;;3.78;3.28;;;;;;;;;;5110700;28;20487;-78
2021/06/14 00:56:24;;;;;;;4.80;2.85;;;;;;;;;;5112471;28;20061;-78
2021/06/14 00:58:50;;;;;;;4.32;3.22;;;;;;;;;;5113379;28;20024;-78
2021/06/14 01:01:16;;;;;;;5.55;3.17;;;;;;;;;;5126122;28;20091;-78
2021/06/14 01:03:42;;;;;;;3.78;3.15;;;;;;;;;;5119267;28;20023;-78
2021/06/14 01:06:09;;;;;;;3.72;3.17;;;;;;;;;;5110291;28;20099;-76
2021/06/14 01:08:37;;;;;;;3.78;3.38;;;;;;;;;;5121092;27;20035;-79
2021/06/14 01:11:16;;;;;;;4.03;3.20;;;;;;;;;;5128059;27;20048;-78
2021/06/14 01:13:48;;;;;;;4.38;3.35;;;;;;;;;;5114339;27;20026;-79
2021/06/14 01:16:14;;;;;;;4.63;3.65;;;;;;;;;;5114315;27;20031;-79
2021/06/14 01:18:58;;;;;;;5.35;3.78;;;;;;;;;;5124965;27;20370;-78
2021/06/14 01:21:24;;;;;;;5.68;3.58;;;;;;;;;;5115632;27;20055;-78
2021/06/14 01:23:59;;;;;;;5.50;3.55;;;;;;;;;;5129743;27;20088;-78
2021/06/14 01:26:26;;;;;;;4.32;3.70;;;;;;;;;;5128011;27;20035;-78
2021/06/14 01:29:01;;;;;;;6.00;3.85;;;;;;;;;;5131620;27;20473;-77
2021/06/14 01:31:28;;;;;;;4.07;3.53;;;;;;;;;;5127533;27;20589;-78
2021/06/14 01:33:55;;;;;;;3.58;3.22;;;;;;;;;;5132866;27;20034;-79
2021/06/14 01:36:29;;;;;;;5.65;3.78;;;;;;;;;;5133526;27;20115;-78
2021/06/14 01:38:56;;;;;;;5.53;3.60;;;;;;;;;;5124083;27;20031;-78
2021/06/14 01:41:24;;;;;;;5.70;3.67;;;;;;;;;;5120343;27;20051;-77
2021/06/14 01:43:51;;;;;;;4.55;3.70;;;;;;;;;;5120415;27;20045;-77
2021/06/14 01:46:23;;;;;;;4.50;3.90;;;;;;;;;;5127528;27;20024;-78
2021/06/14 01:48:49;;;;;;;6.93;4.05;;;;;;;;;;5125192;27;20104;-78
2021/06/14 01:51:16;;;;;;;4.57;4.10;;;;;;;;;;5125361;27;20020;-78
2021/06/14 01:54:02;;;;;;;7.95;4.10;;;;;;;;;;5133320;27;20085;-78
2021/06/14 01:56:28;;;;;;;7.18;4.03;;;;;;;;;;5118893;27;20030;-78
2021/06/14 01:58:54;;;;;;;7.65;4.40;;;;;;;;;;5114607;27;20073;-77
2021/06/14 02:01:20;;;;;;;7.05;4.40;;;;;;;;;;5116814;27;20027;-77
2021/06/14 02:03:46;;;;;;;6.85;4.00;;;;;;;;;;5117625;27;20039;-79
2021/06/14 02:06:13;;;;;;;5.60;4.32;;;;;;;;;;5112791;28;20031;-78
2021/06/14 02:08:39;;;;;;;4.95;3.53;;;;;;;;;;5121060;27;20040;-78
2021/06/14 02:11:05;;;;;;;5.28;3.85;;;;;;;;;;5113234;28;20033;-79
2021/06/14 02:13:31;;;;;;;3.95;3.58;;;;;;;;;;5123121;27;20043;-78
2021/06/14 02:15:57;;;;;;;5.70;3.80;;;;;;;;;;5129543;27;20034;-77
2021/06/14 02:18:24;;;;;;;3.20;2.90;;;;;;;;;;5118104;27;20417;-78
2021/06/14 02:20:50;;;;;;;4.20;3.05;;;;;;;;;;5099556;27;20026;-79
2021/06/14 02:23:16;;;;;;;4.25;2.75;;;;;;;;;;5113508;27;20028;-79
2021/06/14 02:25:42;;;;;;;3.70;3.08;;;;;;;;;;5112545;28;20099;-78
2021/06/14 02:28:08;;;;;;;3.67;2.60;;;;;;;;;;5121643;27;20031;-79
2021/06/14 02:30:34;;;;;;;3.78;2.85;;;;;;;;;;5124923;27;20035;-79
2021/06/14 02:33:00;;;;;;;5.65;3.55;;;;;;;;;;5127913;27;20120;-79
2021/06/14 02:35:26;;;;;;;5.25;3.90;;;;;;;;;;5124194;27;20084;-78
2021/06/14 02:37:55;;;;;;;4.90;3.97;;;;;;;;;;5117434;27;20490;-80
2021/06/14 02:40:23;;;;;;;3.90;3.50;;;;;;;;;;5131061;27;20027;-79
2021/06/14 02:42:49;;;;;;;3.80;3.15;;;;;;;;;;5118695;27;20023;-79
2021/06/14 02:45:16;;;;;;;3.90;3.20;;;;;;;;;;5094329;28;20366;-79
2021/06/14 02:47:43;;;;;;;7.50;3.28;;;;;;;;;;5120080;27;20062;-79
2021/06/14 02:50:10;;;;;;;3.47;2.70;;;;;;;;;;5125297;27;20023;-80
2021/06/14 02:52:37;;;;;;;3.40;3.10;;;;;;;;;;5112562;27;20050;-79
2021/06/14 02:55:07;;;;;;;3.15;2.80;;;;;;;;;;5127644;27;20118;-79
2021/06/14 02:57:33;;;;;;;3.65;3.05;;;;;;;;;;5123963;27;20043;-79
2021/06/14 03:00:00;;;;;;;3.23;2.90;;;;;;;;;;5116142;27;20829;-78
2021/06/14 03:02:27;;;;;;;4.57;3.08;;;;;;;;;;5120222;27;20500;-78
2021/06/14 03:04:54;;;;;;;3.95;2.83;;;;;;;;;;5124397;27;20365;-78
2021/06/14 03:07:22;;;;;;;5.18;2.72;;;;;;;;;;5120116;27;20112;-77
2021/06/14 03:09:48;;;;;;;6.00;3.53;;;;;;;;;;5128291;27;20050;-78
2021/06/14 03:12:14;;;;;;;4.68;3.90;;;;;;;;;;5121283;27;20084;-76
2021/06/14 03:14:40;;;;;;;4.50;4.03;;;;;;;;;;5109358;27;20378;-76
2021/06/14 03:17:07;;;;;;;4.20;3.80;;;;;;;;;;5131154;27;20047;-78
2021/06/14 03:19:35;;;;;;;6.32;3.80;;;;;;;;;;5123453;27;20046;-78
2021/06/14 03:22:03;;;;;;;5.10;4.22;;;;;;;;;;5104879;27;20027;-77
2021/06/14 03:24:29;;;;;;;7.85;4.25;;;;;;;;;;5118364;27;20027;-77
2021/06/14 03:26:55;;;;;;;6.65;4.10;;;;;;;;;;5126462;27;20039;-78
2021/06/14 03:29:23;;;;;;;5.65;4.63;;;;;;;;;;5101803;27;20062;-77
2021/06/14 03:31:49;;;;;;;4.90;4.15;;;;;;;;;;5122406;27;20426;-78
2021/06/14 03:34:16;;;;;;;8.30;4.63;;;;;;;;;;5119880;27;20094;-77
2021/06/14 03:36:42;;;;;;;5.88;5.20;;;;;;;;;;5111618;27;20108;-78
2021/06/14 03:39:09;;;;;;;10.65;5.78;;;;;;;;;;5119150;27;20538;-78
2021/06/14 03:41:35;;;;;;;8.63;5.80;;;;;;;;;;5095140;27;20396;-77
2021/06/14 03:44:04;;;;;;;6.82;6.15;;;;;;;;;;5121606;27;20024;-77
2021/06/14 03:46:30;;;;;;;6.20;5.43;;;;;;;;;;5121896;27;20027;-78
2021/06/14 03:48:56;;;;;;;7.47;4.57;;;;;;;;;;5111427;27;20043;-79
2021/06/14 03:51:22;;;;;;;6.07;4.20;;;;;;;;;;5111508;27;20558;-77
2021/06/14 03:53:57;;;;;;;4.57;3.80;;;;;;;;;;5113378;27;20039;-78
2021/06/14 03:56:24;;;;;;;4.47;3.40;;;;;;;;;;5129136;27;20020;-78
2021/06/14 03:58:50;;;;;;;5.07;3.78;;;;;;;;;;5113552;27;20072;-78
2021/06/14 04:01:17;;;;;;;5.20;4.07;;;;;;;;;;5110715;28;20573;-77
2021/06/14 04:03:46;;;;;;;6.68;3.78;;;;;;;;;;5115016;27;20028;-78
2021/06/14 04:06:12;;;;;;;4.20;3.38;;;;;;;;;;5111037;27;20346;-78
2021/06/14 04:08:38;;;;;;;4.45;3.60;;;;;;;;;;5110789;28;20039;-78
2021/06/14 04:11:04;;;;;;;5.10;3.50;;;;;;;;;;5119228;27;20422;-78
2021/06/14 04:13:30;;;;;;;4.40;3.40;;;;;;;;;;5126475;27;20088;-77
2021/06/14 04:15:56;;;;;;;6.13;3.30;;;;;;;;;;5110357;28;20391;-78
2021/06/14 04:18:22;;;;;;;6.68;3.17;;;;;;;;;;5119156;27;20020;-78
2021/06/14 04:20:48;;;;;;;3.20;2.90;;;;;;;;;;5119689;27;20036;-78
2021/06/14 04:23:14;;;;;;;4.80;3.60;;;;;;;;;;5098306;28;20024;-78
2021/06/14 04:25:40;;;;;;;3.33;3.00;;;;;;;;;;5107175;27;20038;-77
2021/06/14 04:28:07;;;;;;;4.53;2.88;;;;;;;;;;5110975;27;20122;-78
2021/06/14 04:30:34;;;;;;;3.78;3.08;;;;;;;;;;5123277;27;20058;-78
2021/06/14 04:33:00;;;;;;;;;;;;;;;;;;5114144;27;20023;-76
2021/06/14 04:35:26;;;;;;;4.03;2.90;;;;;;;;;;5098541;27;19908;-78
2021/06/14 04:37:52;;;;;;;4.45;3.00;;;;;;;;;;5128386;27;20027;-79
2021/06/14 04:40:19;;;;;;;5.75;3.40;;;;;;;;;;5117482;27;20476;-78
2021/06/14 04:42:45;;;;;;;4.30;2.88;;;;;;;;;;5110153;28;20367;-77
2021/06/14 04:45:13;;;;;;;4.70;3.45;;;;;;;;;;5126492;27;20493;-79
2021/06/14 04:47:39;;;;;;;5.38;3.63;;;;;;;;;;5117745;27;20236;-78
2021/06/14 04:50:05;;;;;;;5.07;3.00;;;;;;;;;;5118277;28;20532;-78
2021/06/14 04:52:31;;;;;;;7.45;3.35;;;;;;;;;;5124369;28;20487;-77
2021/06/14 04:54:57;;;;;;;3.33;2.95;;;;;;;;;;5117008;28;20024;-78
2021/06/14 04:57:23;;;;;;;5.80;2.90;;;;;;;;;;5109302;28;20047;-76
2021/06/14 04:59:49;;;;;;;5.15;3.10;;;;;;;;;;5126077;28;20491;-77
2021/06/14 05:02:15;;;;;;;5.60;3.50;;;;;;;;;;5114086;28;20059;-78
2021/06/14 05:04:41;;;;;;;6.03;3.00;;;;;;;;;;5122323;28;20066;-76
2021/06/14 05:07:07;;;;;;;4.10;3.33;;;;;;;;;;5112649;28;20039;-78
2021/06/14 05:09:33;;;;;;;5.40;3.60;;;;;;;;;;5128046;28;20031;-78
2021/06/14 05:11:59;;;;;;;6.65;3.53;;;;;;;;;;5110911;28;20056;-77
2021/06/14 05:14:25;;;;;;;5.53;3.60;;;;;;;;;;5116853;28;20122;-77
2021/06/14 05:16:51;;;;;;;8.05;3.70;;;;;;;;;;5105119;28;20037;-77
2021/06/14 05:19:17;;;;;;;5.85;3.20;;;;;;;;;;5117136;28;20035;-75
2021/06/14 05:21:43;;;;;;;7.35;4.30;;;;;;;;;;5117123;28;20478;-75
2021/06/14 05:24:09;;;;;;;4.63;3.47;;;;;;;;;;5097659;28;20039;-76
2021/06/14 05:26:35;;;;;;;7.43;3.92;;;;;;;;;;5120131;28;20062;-77
2021/06/14 05:29:01;;;;;;;11.52;5.93;;;;;;;;;;5113796;28;20111;-76
2021/06/14 05:31:27;;;;;;;6.38;4.00;;;;;;;;;;5117842;28;20035;-77
2021/06/14 05:33:53;;;;;;;6.88;4.65;;;;;;;;;;5121526;28;20031;-77
2021/06/14 05:36:19;;;;;;;6.15;3.70;;;;;;;;;;5114788;28;20464;-77
2021/06/14 05:38:45;;;;;;;12.18;3.40;;;;;;;;;;5117610;28;20079;-77
2021/06/14 05:41:11;;;;;;;7.10;4.35;;;;;;;;;;5109653;28;20488;-76
2021/06/14 05:43:37;;;;;;;10.25;3.75;;;;;;;;;;5123529;28;20540;-74
2021/06/14 05:46:03;;;;;;;9.27;4.07;;;;;;;;;;5110392;28;20047;-77
2021/06/14 05:48:29;;;;;;;6.22;3.40;;;;;;;;;;5116422;28;20038;-79
2021/06/14 05:50:55;;;;;;;5.75;3.63;;;;;;;;;;5109132;28;20109;-78
2021/06/14 05:53:23;;;;;;;5.22;3.90;;;;;;;;;;5092756;28;20043;-74
2021/06/14 05:55:49;;;;;;;5.13;3.40;;;;;;;;;;5112401;27;20032;-76
2021/06/14 05:58:15;;;;;;;5.07;3.60;;;;;;;;;;5112019;28;20071;-78
2021/06/14 06:00:41;;;;;;;3.90;3.30;;;;;;;;;;5124640;27;20027;-76
2021/06/14 06:03:07;;;;;;;4.93;3.30;;;;;;;;;;5132037;27;20030;-77
2021/06/14 06:05:33;;;;;;;10.57;4.15;;;;;;;;;;5119319;27;20043;-76
2021/06/14 06:07:59;;;;;;;8.27;3.90;;;;;;;;;;5114238;27;20036;-78
2021/06/14 06:10:25;;;;;;;9.68;4.70;;;;;;;;;;5114223;27;20020;-77
2021/06/14 06:12:51;;;;;;;7.65;3.95;;;;;;;;;;5116549;27;20038;-78
2021/06/14 06:15:19;;;;;;;8.60;4.53;;;;;;;;;;5122381;27;20035;-76
2021/06/14 06:17:46;;;;;;;10.00;5.03;;;;;;;;;;5131618;27;20483;-77
2021/06/14 06:20:12;;;;;;;8.30;3.80;;;;;;;;;;5124584;27;20026;-77
2021/06/14 06:22:39;;;;;;;8.38;3.85;;;;;;;;;;5128040;27;20507;-78
2021/06/14 06:25:06;;;;;;;5.95;4.50;;;;;;;;;;5121146;27;20031;-79
2021/06/14 06:27:32;;;;;;;5.90;4.35;;;;;;;;;;5113668;27;20032;-76
2021/06/14 06:29:58;;;;;;;12.75;6.20;;;;;;;;;;5113792;28;20115;-79
2021/06/14 06:32:24;;;;;;;7.88;5.78;;;;;;;;;;5109840;27;20123;-78
2021/06/14 06:34:50;;;;;;;5.00;3.95;;;;;;;;;;5118288;27;20023;-79
2021/06/14 06:37:16;;;;;;;9.38;5.60;;;;;;;;;;5133363;27;20039;-78
2021/06/14 06:39:42;;;;;;;6.63;4.72;;;;;;;;;;5131698;27;20054;-80
2021/06/14 06:42:08;;;;;;;6.90;4.70;;;;;;;;;;5134040;27;20023;-77
2021/06/14 06:44:35;;;;;;;8.32;4.22;;;;;;;;;;5131101;27;20469;-78
2021/06/14 06:47:02;;;;;;;5.90;4.75;;;;;;;;;;5103285;28;20044;-78
2021/06/14 06:49:28;;;;;;;6.60;4.35;;;;;;;;;;5120775;27;20464;-79
2021/06/14 06:51:54;;;;;;;5.38;4.15;;;;;;;;;;5127949;27;20043;-77
2021/06/14 06:54:20;;;;;;;9.82;4.30;;;;;;;;;;5127623;27;20080;-77
2021/06/14 06:56:47;;;;;;;6.40;4.10;;;;;;;;;;5120217;27;20454;-80
2021/06/14 06:59:13;;;;;;;5.70;4.60;;;;;;;;;;5113006;28;20099;-78
2021/06/14 07:01:39;;;;;;;6.78;4.60;;;;;;;;;;5113510;27;20527;-79
2021/06/14 07:04:06;;;;;;;6.63;5.28;;;;;;;;;;5116818;27;20020;-78
2021/06/14 07:06:32;;;;;;;17.42;9.13;;;;;;;;;;5123961;27;20393;-79
2021/06/14 07:08:59;;;;;;;11.25;5.85;;;;;;;;;;5129876;27;20076;-79
2021/06/14 07:11:25;;;;;;;14.13;8.35;;;;;;;;;;5128965;27;20477;-79
2021/06/14 07:13:51;;;;;;;19.77;10.10;;;;;;;;;;5125206;27;20102;-79
2021/06/14 07:16:17;;;;;;;14.55;8.32;;;;;;;;;;5127070;27;20027;-79
2021/06/14 07:18:43;;;;;;;12.10;7.90;;;;;;;;;;5130173;27;20035;-79
2021/06/14 07:21:09;;;;;;;14.70;10.25;;;;;;;;;;5125947;27;20023;-78
2021/06/14 07:23:36;;;;;;;18.85;11.25;;;;;;;;;;5125063;27;20423;-78
2021/06/14 07:26:02;;;;;;;14.02;7.88;;;;;;;;;;5123276;27;20027;-79
2021/06/14 07:28:28;;;;;;;12.07;9.82;;;;;;;;;;5130049;27;20091;-80
2021/06/14 07:30:53;;;;;;;13.68;11.13;;;;;;;;;;5102320;27;20023;-79
2021/06/14 07:33:19;;;;;;;15.88;9.15;;;;;;;;;;5124463;27;20028;-79
2021/06/14 07:35:45;;;;;;;17.77;11.40;;;;;;;;;;5128684;27;20023;-79
2021/06/14 07:38:12;;;;;;;17.58;9.68;;;;;;;;;;5127780;27;20031;-82
2021/06/14 07:40:38;;;;;;;12.70;10.13;;;;;;;;;;5129440;27;20039;-78
2021/06/14 07:43:05;;;;;;;12.80;10.50;;;;;;;;;;5126335;27;20037;-79
2021/06/14 07:45:31;;;;;;;13.00;11.13;;;;;;;;;;5123621;27;20035;-80
2021/06/14 07:47:57;;;;;;;12.20;10.50;;;;;;;;;;5129733;27;20397;-79
2021/06/14 07:50:23;;;;;;;11.30;8.97;;;;;;;;;;5122051;27;20027;-78
2021/06/14 07:52:49;;;;;;;16.35;11.90;;;;;;;;;;5129379;27;20051;-80
2021/06/14 07:55:15;;;;;;;13.80;8.98;;;;;;;;;;5122355;27;20034;-77
2021/06/14 07:57:41;;;;;;;11.85;8.68;;;;;;;;;;5130646;27;20019;-77
2021/06/14 08:00:09;;;;;;;12.60;8.93;;;;;;;;;;5129475;27;20488;-79
2021/06/14 08:02:41;;;;;;;14.10;11.05;;;;;;;;;;5127712;27;20038;-79
2021/06/14 08:05:08;;;;;;;12.07;10.23;;;;;;;;;;5118424;27;20110;-80
2021/06/14 08:07:35;;;;;;;13.32;10.05;;;;;;;;;;5121619;27;20122;-79
2021/06/14 08:10:03;;;;;;;17.27;11.82;;;;;;;;;;5128683;27;20378;-78
2021/06/14 08:12:31;;;;;;;15.32;11.32;;;;;;;;;;5129732;27;20379;-79
2021/06/14 08:14:57;;;;;;;14.90;12.40;;;;;;;;;;5130347;27;20019;-80
2021/06/14 08:17:23;;;;;;;15.27;11.20;;;;;;;;;;5121860;27;20072;-80
2021/06/14 08:19:53;;;;;;;16.10;11.85;;;;;;;;;;5129089;27;20181;-77
2021/06/14 08:25:04;;;;;;;19.60;13.50;;;;;;;;;;5120803;27;20028;-79
2021/06/14 08:27:31;;;;;;;22.80;14.00;;;;;;;;;;5127905;27;20388;-79
2021/06/14 08:29:57;;;;;;;;;;;;;;;;;;5122326;27;20126;-79
2021/06/14 08:32:23;;;;;;;19.63;13.60;;;;;;;;;;5098645;28;19912;-78
2021/06/14 08:34:49;;;;;;;19.90;14.60;;;;;;;;;;5126633;27;20397;-78
2021/06/14 08:37:15;;;;;;;19.90;14.27;;;;;;;;;;5130775;27;20065;-80
2021/06/14 08:39:41;;;;;;;19.02;14.73;;;;;;;;;;5122151;27;20035;-78
2021/06/14 08:42:07;;;;;;;20.60;14.85;;;;;;;;;;5126493;27;20503;-79
2021/06/14 08:44:33;;;;;;;19.55;14.10;;;;;;;;;;5124074;27;20065;-80
2021/06/14 08:47:02;;;;;;;17.75;14.30;;;;;;;;;;5113878;28;20063;-79
2021/06/14 08:49:29;;;;;;;21.52;13.38;;;;;;;;;;5122126;27;20385;-78
2021/06/14 08:51:55;;;;;;;19.67;14.45;;;;;;;;;;5118383;28;20050;-80
2021/06/14 08:54:23;;;;;;;20.88;14.43;;;;;;;;;;5126226;28;20038;-76
2021/06/14 08:56:48;;;;;;;24.02;16.65;;;;;;;;;;5129455;28;20106;-74
2021/06/14 08:59:14;;;;;;;19.80;14.00;;;;;;;;;;5122543;28;20681;-78
2021/06/14 09:01:40;;;;;;;17.90;13.98;;;;;;;;;;5124475;28;20050;-78
2021/06/14 09:04:06;;;;;;;18.60;15.00;;;;;;;;;;5120593;28;20050;-78
2021/06/14 09:06:32;;;;;;;18.73;16.70;;;;;;;;;;5106004;28;20185;-79
2021/06/14 09:09:07;;;;;;;19.52;15.70;;;;;;;;;;5115921;28;20020;-78
2021/06/14 09:11:34;;;;;;;18.77;15.82;;;;;;;;;;5123765;28;20519;-79
2021/06/14 09:14:01;;;;;;;22.08;14.90;;;;;;;;;;5128481;28;20536;-77
2021/06/14 09:16:30;;;;;;;21.27;14.55;;;;;;;;;;5121386;28;20046;-79
2021/06/14 09:18:56;;;;;;;18.15;14.07;;;;;;;;;;5129612;28;20011;-78
2021/06/14 09:21:22;;;;;;;21.65;15.90;;;;;;;;;;5125346;28;20027;-78
2021/06/14 09:23:56;;;;;;;22.53;16.67;;;;;;;;;;5113826;28;20772;-76
2021/06/14 09:26:22;;;;;;;28.40;17.08;;;;;;;;;;5125096;28;20035;-78
2021/06/14 09:28:48;;;;;;;22.95;15.52;;;;;;;;;;5128813;27;21495;-78
2021/06/14 09:31:15;;;;;;;15.73;13.65;;;;;;;;;;5128441;27;20124;-78
2021/06/14 09:33:45;;;;;;;16.60;13.85;;;;;;;;;;5117574;27;20161;-76
2021/06/14 09:36:11;;;;;;;19.23;15.27;;;;;;;;;;5130686;27;20102;-77
2021/06/14 09:38:37;;;;;;;18.38;14.48;;;;;;;;;;5129315;27;20019;-83
2021/06/14 09:41:11;;;;;;;19.27;15.02;;;;;;;;;;5122959;27;20084;-81
2021/06/14 09:43:38;;;;;;;17.15;15.25;;;;;;;;;;5129095;27;20047;-79
2021/06/14 09:46:04;;;;;;;;;;;;;;;;;;5124581;27;20484;-80
2021/06/14 09:48:31;;;;;;;16.23;14.52;;;;;;;;;;5130828;27;19959;-77
2021/06/14 09:51:00;;;;;;;19.05;13.02;;;;;;;;;;5129614;27;20034;-81
2021/06/14 09:53:30;;;;;;;18.23;12.88;;;;;;;;;;5129410;27;20043;-76
2021/06/14 09:55:56;;;;;;;19.60;15.65;;;;;;;;;;5119649;27;20072;-80
2021/06/14 09:58:22;;;;;;;16.55;13.63;;;;;;;;;;5131726;27;20023;-81
2021/06/14 10:00:50;;;;;;;14.82;13.30;;;;;;;;;;5132355;27;20034;-80
2021/06/14 10:03:17;;;;;;;16.23;13.50;;;;;;;;;;5126623;27;20372;-77
2021/06/14 10:05:50;;;;;;;18.98;14.23;;;;;;;;;;5127400;27;20037;-79
2021/06/14 10:08:29;;;;;;;21.80;18.92;;;;;;;;;;5129724;27;20031;-79
2021/06/14 10:11:03;;;;;;;18.67;13.10;;;;;;;;;;5128899;27;20076;-79
2021/06/14 10:13:30;;;;;;;17.55;13.23;;;;;;;;;;5128575;27;20122;-77
2021/06/14 10:16:04;;;;;;;18.25;12.07;;;;;;;;;;5126689;27;20129;-78
2021/06/14 10:18:31;;;;;;;14.88;12.25;;;;;;;;;;5131723;27;20024;-79
2021/06/14 10:20:57;;;;;;;13.13;11.45;;;;;;;;;;5131934;27;20035;-81
2021/06/14 10:23:23;;;;;;;16.75;11.23;;;;;;;;;;5131337;27;20024;-80
2021/06/14 10:25:49;;;;;;;53.88;14.38;;;;;;;;;;5125779;27;20484;-81
2021/06/14 10:28:15;;;;;;;15.77;12.85;;;;;;;;;;5128834;27;20035;-79
2021/06/14 10:30:41;;;;;;;18.88;10.55;;;;;;;;;;5131565;27;20046;-78
2021/06/14 10:33:07;;;;;;;13.73;11.87;;;;;;;;;;5131584;27;20405;-79
2021/06/14 10:35:33;;;;;;;13.10;11.75;;;;;;;;;;5131902;27;20047;-78
2021/06/14 10:38:01;;;;;;;15.80;11.70;;;;;;;;;;5124590;27;20039;-78
2021/06/14 10:40:27;;;;;;;12.18;10.30;;;;;;;;;;5123139;27;20137;-79
2021/06/14 10:42:54;;;;;;;11.98;10.43;;;;;;;;;;5131266;27;20034;-80
2021/06/14 10:45:24;;;;;;;15.25;11.68;;;;;;;;;;5123060;27;20126;-77
2021/06/14 10:47:50;;;;;;;11.93;10.43;;;;;;;;;;5131731;27;20073;-79
2021/06/14 10:50:20;;;;;;;15.10;10.95;;;;;;;;;;5129838;27;20118;-78
2021/06/14 10:52:47;;;;;;;15.55;11.65;;;;;;;;;;5124350;27;20039;-77
2021/06/14 10:55:14;;;;;;;15.65;11.40;;;;;;;;;;5127579;27;20027;-76
2021/06/14 10:57:41;;;;;;;19.25;11.50;;;;;;;;;;5123741;27;20063;-77
2021/06/14 11:00:20;;;;;;;12.55;11.25;;;;;;;;;;5131077;27;20073;-78
2021/06/14 11:03:06;;;;;;;16.17;10.25;;;;;;;;;;5125973;27;20346;-78
2021/06/14 11:05:34;;;;;;;15.13;11.07;;;;;;;;;;5127398;27;20039;-77
2021/06/14 11:08:18;;;;;;;11.07;9.52;;;;;;;;;;5128701;27;20296;-75
2021/06/14 11:11:06;;;;;;;14.43;10.88;;;;;;;;;;5126921;27;20113;-76
2021/06/14 11:13:32;;;;;;;12.40;11.05;;;;;;;;;;5125112;27;20432;-77
2021/06/14 11:16:01;;;;;;;17.00;11.03;;;;;;;;;;5126961;27;20028;-78
2021/06/14 11:18:28;;;;;;;15.57;11.43;;;;;;;;;;5120527;27;20047;-77
2021/06/14 11:21:05;;;;;;;14.00;11.18;;;;;;;;;;5127902;27;20118;-78
2021/06/14 11:23:31;;;;;;;18.85;10.85;;;;;;;;;;5124022;27;20027;-76
2021/06/14 11:25:58;;;;;;;16.83;10.53;;;;;;;;;;5124383;27;20376;-79
2021/06/14 11:28:24;;;;;;;;;;;;;;;;;;5119136;27;20069;-77
2021/06/14 11:30:50;;;;;;;13.60;9.95;;;;;;;;;;5122556;27;20362;-75
2021/06/14 11:33:27;;;;;;;13.13;9.93;;;;;;;;;;5120230;27;20102;-78
2021/06/14 11:35:53;;;;;;;12.40;10.00;;;;;;;;;;5130851;27;20023;-75
2021/06/14 11:38:21;;;;;;;19.55;10.68;;;;;;;;;;5130227;27;20049;-76
2021/06/14 11:40:51;;;;;;;11.10;9.75;;;;;;;;;;5130433;27;20581;-76
2021/06/14 11:43:17;;;;;;;15.65;10.15;;;;;;;;;;5129926;27;20027;-75
2021/06/14 11:45:45;;;;;;;10.93;9.60;;;;;;;;;;5130379;27;20031;-77
2021/06/14 11:48:19;;;;;;;14.48;10.23;;;;;;;;;;5129293;27;20041;-76
2021/06/14 11:50:45;;;;;;;14.30;9.98;;;;;;;;;;5131094;27;20026;-76
2021/06/14 11:53:11;;;;;;;12.50;9.30;;;;;;;;;;5129894;27;20112;-76
2021/06/14 11:55:41;;;;;;;17.60;12.00;;;;;;;;;;5129289;27;20668;-76
2021/06/14 11:58:08;;;;;;;13.93;10.70;;;;;;;;;;5124325;27;20384;-76
2021/06/14 12:00:36;;;;;;;14.73;9.82;;;;;;;;;;5127309;27;20043;-76
2021/06/14 12:03:15;;;;;;;19.20;10.43;;;;;;;;;;5124862;27;20023;-77
2021/06/14 12:05:40;;;;;;;12.35;10.23;;;;;;;;;;5122107;27;20034;-76
2021/06/14 12:08:08;;;;;;;15.03;9.67;;;;;;;;;;5130444;27;20396;-76
2021/06/14 12:10:34;;;;;;;15.07;10.13;;;;;;;;;;5121668;27;20870;-75
2021/06/14 12:13:05;;;;;;;13.70;10.13;;;;;;;;;;5130242;27;20117;-76
2021/06/14 12:15:32;;;;;;;16.30;9.55;;;;;;;;;;5128640;27;20288;-75
2021/06/14 12:17:58;;;;;;;;;;;;;;;;;;5130328;27;20413;-75
2021/06/14 12:20:26;;;;;;;13.32;11.02;;;;;;;;;;5124921;27;20002;-76
2021/06/14 12:23:04;;;;;;;16.10;10.27;;;;;;;;;;5129253;27;20023;-77
2021/06/14 12:25:31;;;;;;;13.70;10.25;;;;;;;;;;5129643;27;20477;-76
2021/06/14 12:27:58;;;;;;;13.32;11.93;;;;;;;;;;5129106;27;20099;-76
2021/06/14 12:30:26;;;;;;;13.77;10.15;;;;;;;;;;5124711;27;20040;-76
2021/06/14 12:32:52;;;;;;;14.93;9.85;;;;;;;;;;5109666;27;20334;-76
2021/06/14 12:35:18;;;;;;;9.20;8.30;;;;;;;;;;5129976;27;20429;-76
2021/06/14 12:37:44;;;;;;;14.82;9.45;;;;;;;;;;5121855;27;20420;-75
2021/06/14 12:40:11;;;;;;;12.35;10.05;;;;;;;;;;5121811;27;20110;-77
2021/06/14 12:42:38;;;;;;;12.30;8.80;;;;;;;;;;5125559;27;20476;-77
2021/06/14 12:45:06;;;;;;;13.75;8.98;;;;;;;;;;5125681;27;20552;-76
2021/06/14 12:47:32;;;;;;;12.05;8.82;;;;;;;;;;5129027;27;20076;-76
2021/06/14 12:49:59;;;;;;;9.30;8.32;;;;;;;;;;5127929;27;20086;-77
2021/06/14 12:52:26;;;;;;;10.77;8.35;;;;;;;;;;5118621;28;20082;-77
2021/06/14 12:54:52;;;;;;;8.65;7.38;;;;;;;;;;5126291;28;20542;-77
2021/06/14 12:57:18;;;;;;;13.50;8.32;;;;;;;;;;5121070;28;20023;-77
2021/06/14 12:59:45;;;;;;;8.75;7.90;;;;;;;;;;5120352;28;20500;-79
2021/06/14 13:02:15;;;;;;;9.48;8.57;;;;;;;;;;5124095;28;20790;-78
2021/06/14 13:04:43;;;;;;;10.70;8.13;;;;;;;;;;5132174;27;20038;-77
2021/06/14 13:07:13;;;;;;;11.27;8.30;;;;;;;;;;5131738;27;20034;-77
2021/06/14 13:09:47;;;;;;;10.50;7.63;;;;;;;;;;5126108;27;20035;-78
2021/06/14 13:12:13;;;;;;;10.90;7.30;;;;;;;;;;5132942;27;20331;-77
2021/06/14 13:14:39;;;;;;;9.63;6.85;;;;;;;;;;5133889;27;20030;-78
2021/06/14 13:17:05;;;;;;;11.55;7.38;;;;;;;;;;5114200;27;20031;-80
2021/06/14 13:19:31;;;;;;;10.40;7.07;;;;;;;;;;5129563;27;20469;-81
2021/06/14 13:22:08;;;;;;;8.73;7.82;;;;;;;;;;5125627;27;20035;-78
2021/06/14 13:24:40;;;;;;;10.77;7.22;;;;;;;;;;5127415;27;20046;-80
2021/06/14 13:27:07;;;;;;;10.57;8.15;;;;;;;;;;5128211;27;20436;-81
2021/06/14 13:29:35;;;;;;;8.68;7.82;;;;;;;;;;5132833;27;20045;-80
2021/06/14 13:32:09;;;;;;;9.13;8.18;;;;;;;;;;5132735;27;20039;-77
2021/06/14 13:34:35;;;;;;;11.43;8.50;;;;;;;;;;5132835;27;20043;-80
2021/06/14 13:37:02;;;;;;;9.02;7.47;;;;;;;;;;5124264;27;20023;-80
2021/06/14 13:39:32;;;;;;;10.13;7.70;;;;;;;;;;5131832;27;20448;-82
2021/06/14 13:42:04;;;;;;;9.55;7.20;;;;;;;;;;5129173;27;20035;-80
2021/06/14 13:44:30;;;;;;;11.98;6.78;;;;;;;;;;5124859;27;20035;-81
2021/06/14 13:46:56;;;;;;;9.57;7.93;;;;;;;;;;5124278;27;20027;-81
2021/06/14 13:49:40;;;;;;;10.85;7.18;;;;;;;;;;5132366;27;20030;-82
2021/06/14 13:52:08;;;;;;;12.57;7.22;;;;;;;;;;5131361;27;20047;-80
2021/06/14 13:54:35;;;;;;;7.93;6.85;;;;;;;;;;5124134;27;20054;-81
2021/06/14 13:57:08;;;;;;;7.60;6.80;;;;;;;;;;5110602;27;20015;-80
2021/06/14 13:59:34;;;;;;;10.73;6.80;;;;;;;;;;5133665;27;20095;-82
2021/06/14 14:02:00;;;;;;;9.27;6.90;;;;;;;;;;5129927;27;20137;-77
2021/06/14 14:04:28;;;;;;;12.65;6.32;;;;;;;;;;5123427;27;20043;-78
2021/06/14 14:06:54;;;;;;;11.80;6.82;;;;;;;;;;5123436;27;20098;-78
2021/06/14 14:09:20;;;;;;;7.80;6.88;;;;;;;;;;5125787;27;20521;-77
2021/06/14 14:11:47;;;;;;;8.90;6.65;;;;;;;;;;5130612;27;20381;-79
2021/06/14 14:14:15;;;;;;;13.05;8.23;;;;;;;;;;5129824;27;20098;-77
2021/06/14 14:16:41;;;;;;;7.03;6.20;;;;;;;;;;5122599;27;20618;-77
2021/06/14 14:19:09;;;;;;;10.60;6.88;;;;;;;;;;5131804;27;20492;-76
2021/06/14 14:21:35;;;;;;;8.60;7.70;;;;;;;;;;5131270;27;20023;-78
2021/06/14 14:24:04;;;;;;;7.22;6.47;;;;;;;;;;5131182;27;20027;-78
2021/06/14 14:26:31;;;;;;;7.45;6.45;;;;;;;;;;5123802;27;20126;-78
2021/06/14 14:28:58;;;;;;;10.10;6.80;;;;;;;;;;5132442;27;20118;-78
2021/06/14 14:31:25;;;;;;;10.55;6.53;;;;;;;;;;5123348;27;20036;-77
2021/06/14 14:33:51;;;;;;;7.53;6.82;;;;;;;;;;5128392;27;20508;-78
2021/06/14 14:36:17;;;;;;;11.40;6.60;;;;;;;;;;5132001;27;20477;-78
2021/06/14 14:38:46;;;;;;;10.15;7.55;;;;;;;;;;5131048;27;20019;-77